Time;durP1;ratioP1;P1;durP2;ratioP2;P2;SDS_P1;SDS_P2;PMS_P1;PMS_P2;Temp;Humidity;BMP_temperature;BMP_pressure;BME280_temperature;BME280_humidity;BME280_pressure;Samples;Min_cycle;Max_cycle;Signal;HPM_P1;HPM_P2
2023/08/21 00:00:16;;;;;;;1.83;1.08;;;23.30;57.60;24.90;102186.00;;;;5028473;28;20212;-77
2023/08/21 00:02:43;;;;;;;2.15;1.13;;;23.20;57.70;24.90;102184.00;;;;5047493;28;20203;-77
2023/08/21 00:05:10;;;;;;;1.33;0.85;;;23.20;57.70;24.90;102188.00;;;;5046516;28;20207;-77
2023/08/21 00:07:37;;;;;;;2.72;1.00;;;23.20;57.80;24.90;102191.00;;;;5047250;28;20196;-77
2023/08/21 00:10:06;;;;;;;0.90;0.68;;;23.20;58.40;24.80;102190.00;;;;5047177;28;20214;-76
2023/08/21 00:12:32;;;;;;;1.63;0.75;;;23.20;57.90;24.80;102188.00;;;;5047004;28;20223;-77
2023/08/21 00:15:01;;;;;;;1.98;1.00;;;23.20;58.00;24.80;102192.00;;;;5045756;28;20195;-77
2023/08/21 00:17:28;;;;;;;2.15;0.88;;;23.20;58.10;24.80;102197.00;;;;5047209;28;20226;-77
2023/08/21 00:19:55;;;;;;;3.30;1.45;;;23.10;58.00;24.80;102194.00;;;;5046582;28;20196;-77
2023/08/21 00:22:22;;;;;;;2.20;0.93;;;23.10;58.10;24.80;102198.00;;;;5047700;28;20219;-77
2023/08/21 00:24:51;;;;;;;1.52;0.77;;;23.10;58.10;24.80;102196.00;;;;5046431;28;20196;-77
2023/08/21 00:27:18;;;;;;;2.50;0.93;;;23.10;58.20;24.80;102195.00;;;;5045115;28;20588;-77
2023/08/21 00:29:45;;;;;;;2.08;0.98;;;23.10;58.30;24.80;102190.00;;;;5045703;28;20199;-77
2023/08/21 00:32:14;;;;;;;1.42;0.90;;;23.10;58.30;24.70;102191.00;;;;5044702;28;20224;-76
2023/08/21 00:34:40;;;;;;;2.25;0.95;;;23.10;58.30;24.80;102171.00;;;;5027906;28;20192;-77
2023/08/21 00:37:07;;;;;;;5.22;1.10;;;23.10;58.30;24.80;102192.00;;;;5031559;28;20220;-77
2023/08/21 00:39:34;;;;;;;1.95;0.70;;;23.10;58.40;24.80;102186.00;;;;5047597;28;20223;-76
2023/08/21 00:42:01;;;;;;;3.42;1.08;;;23.10;58.40;24.80;102198.00;;;;5046758;28;20195;-76
2023/08/21 00:44:28;;;;;;;1.73;0.80;;;23.10;58.40;24.70;102190.00;;;;5046807;28;20211;-76
2023/08/21 00:46:55;;;;;;;3.40;0.75;;;23.10;58.50;24.70;102194.00;;;;5046738;28;20586;-76
2023/08/21 00:49:24;;;;;;;1.80;1.02;;;23.10;58.60;24.70;102190.00;;;;5046643;28;20944;-77
2023/08/21 00:51:52;;;;;;;3.15;1.17;;;23.10;58.60;24.70;102187.00;;;;5047651;28;20716;-77
2023/08/21 00:54:20;;;;;;;1.55;0.75;;;23.10;58.70;24.70;102191.00;;;;5047381;28;20202;-77
2023/08/21 00:56:48;;;;;;;4.35;1.10;;;23.10;58.70;24.70;102183.00;;;;5044354;28;20192;-77
2023/08/21 00:59:15;;;;;;;3.03;0.75;;;23.00;58.70;24.70;102173.00;;;;5043784;28;20211;-77
2023/08/21 01:01:42;;;;;;;1.67;0.82;;;23.10;58.80;24.70;102179.00;;;;5046932;28;20202;-77
2023/08/21 01:04:09;;;;;;;2.20;0.75;;;23.00;58.80;24.70;102175.00;;;;5046846;28;20199;-77
2023/08/21 01:06:38;;;;;;;1.10;0.80;;;23.00;58.80;24.70;102179.00;;;;5040631;28;20287;-77
2023/08/21 01:09:16;;;;;;;2.33;1.00;;;23.00;58.90;24.60;102176.00;;;;5046744;28;20842;-77
2023/08/21 01:11:53;;;;;;;2.28;1.02;;;23.00;59.00;24.60;102176.00;;;;5046081;28;20699;-77
2023/08/21 01:14:29;;;;;;;1.35;0.52;;;23.10;59.00;24.60;102171.00;;;;5047174;28;20199;-77
2023/08/21 01:17:00;;;;;;;2.70;0.88;;;23.00;59.60;24.70;102170.00;;;;5046491;28;20257;-77
2023/08/21 01:19:36;;;;;;;4.60;0.80;;;23.00;58.90;24.60;102173.00;;;;5045855;28;20196;-77
2023/08/21 01:22:05;;;;;;;1.77;0.90;;;23.00;59.00;24.60;102175.00;;;;5048071;28;20203;-77
2023/08/21 01:24:34;;;;;;;4.40;1.20;;;23.00;58.90;24.60;102170.00;;;;5042021;28;20192;-76
2023/08/21 01:27:02;;;;;;;5.20;1.50;;;23.00;58.90;24.60;102171.00;;;;5048659;28;20314;-76
2023/08/21 01:29:30;;;;;;;1.75;0.93;;;23.00;58.90;24.60;102174.00;;;;5049279;28;20203;-77
2023/08/21 01:32:10;;;;;;;1.73;0.57;;;23.00;59.00;24.50;102176.00;;;;5049757;28;21000;-77
2023/08/21 01:34:40;;;;;;;3.30;0.98;;;22.90;59.20;24.60;102179.00;;;;5043835;28;20188;-77
2023/08/21 01:37:09;;;;;;;2.67;1.10;;;22.90;59.00;24.60;102181.00;;;;5049039;28;20219;-77
2023/08/21 01:39:37;;;;;;;2.85;0.98;;;22.90;59.00;24.60;102173.00;;;;5050082;28;20204;-76
2023/08/21 01:42:04;;;;;;;1.98;0.75;;;22.90;59.10;24.50;102180.00;;;;5044933;28;20200;-76
2023/08/21 01:44:31;;;;;;;2.55;1.17;;;22.90;59.10;24.50;102182.00;;;;5050427;28;20191;-76
2023/08/21 01:46:58;;;;;;;1.75;1.00;;;22.90;59.20;24.50;102181.00;;;;5048481;28;20199;-76
2023/08/21 01:49:25;;;;;;;2.78;1.08;;;22.90;59.20;24.50;102183.00;;;;5036963;28;20203;-77
2023/08/21 01:51:52;;;;;;;2.63;0.90;;;22.80;59.20;24.50;102186.00;;;;5049265;28;20215;-77
2023/08/21 01:54:19;;;;;;;3.67;1.10;;;22.80;59.30;24.50;102186.00;;;;5048965;28;20199;-76
2023/08/21 01:56:48;;;;;;;2.00;1.02;;;22.80;59.30;24.50;102179.00;;;;5048867;28;21000;-77
2023/08/21 01:59:18;;;;;;;1.60;0.70;;;22.80;59.30;24.40;102168.00;;;;5044080;28;20229;-76
2023/08/21 02:01:45;;;;;;;2.92;0.60;;;22.80;59.30;24.50;102173.00;;;;5048640;28;20203;-76
2023/08/21 02:04:12;;;;;;;2.10;0.80;;;22.80;59.30;24.50;102176.00;;;;5046379;28;20682;-77
2023/08/21 02:06:39;;;;;;;1.17;0.70;;;22.80;59.30;24.40;102180.00;;;;5047010;28;20207;-76
2023/08/21 02:09:05;;;;;;;2.90;0.75;;;22.80;59.30;24.40;102179.00;;;;5049316;28;20192;-76
2023/08/21 02:11:32;;;;;;;3.67;1.02;;;22.80;59.30;24.40;102176.00;;;;5049124;28;20602;-77
2023/08/21 02:14:01;;;;;;;2.40;0.93;;;22.80;59.40;24.40;102174.00;;;;5048737;28;20199;-77
2023/08/21 02:16:28;;;;;;;1.75;0.90;;;22.70;59.50;24.40;102175.00;;;;5045754;28;20196;-77
2023/08/21 02:18:57;;;;;;;1.35;0.77;;;22.70;59.40;24.40;102183.00;;;;5048211;28;20228;-76
2023/08/21 02:21:24;;;;;;;1.73;0.75;;;22.70;59.50;24.40;102173.00;;;;5049456;28;20204;-76
2023/08/21 02:23:51;;;;;;;1.25;0.90;;;22.70;59.50;24.40;102172.00;;;;5049557;28;20207;-76
2023/08/21 02:26:19;;;;;;;1.17;0.68;;;22.70;59.60;24.40;102175.00;;;;5048194;28;20291;-77
2023/08/21 02:28:46;;;;;;;1.40;0.77;;;22.70;59.60;24.40;102179.00;;;;5045741;28;20203;-77
2023/08/21 02:31:15;;;;;;;2.78;1.00;;;22.70;59.70;24.40;102173.00;;;;5046444;28;20586;-77
2023/08/21 02:33:42;;;;;;;1.48;0.70;;;22.70;59.70;24.40;102179.00;;;;5046330;28;20200;-77
2023/08/21 02:36:09;;;;;;;1.30;0.60;;;22.70;59.80;24.40;102180.00;;;;5048364;28;20199;-77
2023/08/21 02:38:37;;;;;;;2.50;0.98;;;22.70;59.80;24.40;102181.00;;;;5048326;28;20223;-77
2023/08/21 02:41:04;;;;;;;1.52;0.70;;;22.70;59.90;24.40;102172.00;;;;5048420;28;20213;-77
2023/08/21 02:43:31;;;;;;;4.80;1.45;;;22.70;59.90;24.40;102170.00;;;;5049088;28;20208;-77
2023/08/21 02:45:58;;;;;;;1.67;0.57;;;22.70;59.90;24.40;102177.00;;;;5047788;28;20203;-76
2023/08/21 02:48:26;;;;;;;1.30;0.50;;;22.70;60.00;24.40;102179.00;;;;5045133;28;20200;-77
2023/08/21 02:50:53;;;;;;;2.05;0.77;;;22.70;60.00;24.40;102175.00;;;;5035730;28;20184;-76
2023/08/21 02:53:20;;;;;;;4.20;1.20;;;22.70;59.90;24.40;102175.00;;;;5048770;28;20572;-77
2023/08/21 02:55:47;;;;;;;3.10;0.80;;;22.70;60.00;24.40;102178.00;;;;5045423;28;20187;-76
2023/08/21 02:58:14;;;;;;;1.98;0.90;;;22.70;60.00;24.40;102182.00;;;;5047242;28;20227;-77
2023/08/21 03:00:41;;;;;;;2.15;0.70;;;22.70;60.00;24.40;102179.00;;;;5044969;28;20713;-77
2023/08/21 03:03:08;;;;;;;2.60;0.88;;;22.70;60.10;24.40;102184.00;;;;5047693;28;20192;-77
2023/08/21 03:05:36;;;;;;;0.80;0.77;;;22.70;60.10;24.40;102184.00;;;;5046680;28;20249;-78
2023/08/21 03:08:04;;;;;;;3.78;0.60;;;22.70;60.20;24.40;102188.00;;;;5045060;28;20202;-77
2023/08/21 03:10:33;;;;;;;1.00;0.60;;;22.70;60.10;24.40;102183.00;;;;5047119;28;20200;-77
2023/08/21 03:13:00;;;;;;;0.95;0.52;;;22.70;60.00;24.30;102190.00;;;;5007802;28;20660;-77
2023/08/21 03:15:27;;;;;;;1.33;0.60;;;22.70;60.00;24.30;102186.00;;;;5006769;28;20197;-76
2023/08/21 03:17:54;;;;;;;1.02;0.70;;;22.70;60.00;24.30;102188.00;;;;5007725;28;20731;-76
2023/08/21 03:20:21;;;;;;;2.42;1.00;;;22.70;60.00;24.30;102185.00;;;;5008493;28;20679;-77
2023/08/21 03:22:49;;;;;;;1.98;0.65;;;22.70;60.00;24.30;102188.00;;;;5002391;28;20572;-77
2023/08/21 03:25:17;;;;;;;2.10;0.90;;;22.60;60.00;24.30;102188.00;;;;5008496;28;20208;-76
2023/08/21 03:27:48;;;;;;;0.93;0.57;;;22.60;60.00;24.30;102177.00;;;;5007316;28;20204;-76
2023/08/21 03:30:16;;;;;;;1.30;0.52;;;22.60;60.10;24.20;102176.00;;;;5004875;28;20271;-77
2023/08/21 03:32:43;;;;;;;2.72;0.60;;;22.60;60.10;24.20;102179.00;;;;5007844;28;20220;-77
2023/08/21 03:35:10;;;;;;;1.33;0.60;;;22.60;60.90;24.20;102179.00;;;;5007749;28;20606;-77
2023/08/21 03:37:37;;;;;;;0.68;0.50;;;22.60;60.30;24.20;102182.00;;;;5008457;28;20205;-77
2023/08/21 03:40:07;;;;;;;1.08;0.60;;;22.60;60.40;24.20;102178.00;;;;5006712;28;20207;-77
2023/08/21 03:42:34;;;;;;;1.52;0.77;;;22.50;60.40;24.20;102173.00;;;;5007799;28;20205;-76
2023/08/21 03:45:03;;;;;;;1.92;0.63;;;22.50;60.40;24.20;102171.00;;;;5007471;28;20190;-76
2023/08/21 03:47:30;;;;;;;2.58;1.00;;;22.50;60.50;24.20;102172.00;;;;5008639;28;20201;-77
2023/08/21 03:49:57;;;;;;;2.63;0.77;;;22.50;60.50;24.20;102173.00;;;;5007790;28;20212;-77
2023/08/21 03:52:24;;;;;;;1.25;0.68;;;22.50;60.50;24.20;102173.00;;;;5007378;28;20586;-76
2023/08/21 03:54:51;;;;;;;1.05;0.63;;;22.50;60.50;24.10;102165.00;;;;5008357;28;20200;-77
2023/08/21 03:57:19;;;;;;;1.35;0.73;;;22.50;60.50;24.10;102176.00;;;;4997233;28;20560;-77
2023/08/21 03:59:46;;;;;;;1.77;0.52;;;22.50;60.50;24.10;102167.00;;;;5007974;28;20221;-76
2023/08/21 04:02:13;;;;;;;1.83;0.80;;;22.50;60.50;24.10;102167.00;;;;5007346;28;20205;-77
2023/08/21 04:04:40;;;;;;;1.05;0.60;;;22.40;60.40;24.10;102172.00;;;;5007405;28;20195;-77
2023/08/21 04:07:07;;;;;;;1.42;0.63;;;22.40;60.60;24.10;102168.00;;;;5007548;28;20197;-77
2023/08/21 04:09:34;;;;;;;1.90;0.70;;;22.40;60.60;24.10;102176.00;;;;5008064;28;20193;-77
2023/08/21 04:12:01;;;;;;;1.83;0.70;;;22.40;60.60;24.10;102176.00;;;;5031771;28;20230;-77
2023/08/21 04:14:30;;;;;;;3.30;0.90;;;22.40;60.60;24.00;102183.00;;;;5035724;28;20211;-77
2023/08/21 04:16:57;;;;;;;1.38;0.75;;;22.40;60.70;24.00;102180.00;;;;5042067;28;20199;-77
2023/08/21 04:19:24;;;;;;;2.35;0.93;;;22.30;60.60;24.00;102180.00;;;;5046263;28;20594;-77
2023/08/21 04:21:51;;;;;;;1.88;0.93;;;22.30;60.70;24.00;102182.00;;;;5047051;28;20249;-77
2023/08/21 04:24:18;;;;;;;1.70;0.73;;;22.30;60.80;24.00;102187.00;;;;5046726;28;20542;-77
2023/08/21 04:26:45;;;;;;;1.17;0.55;;;22.30;60.80;24.00;102187.00;;;;5045986;28;20200;-77
2023/08/21 04:29:12;;;;;;;2.15;1.00;;;22.30;60.90;24.00;102191.00;;;;5047754;28;20567;-77
2023/08/21 04:31:40;;;;;;;2.97;1.05;;;22.30;60.90;24.00;102188.00;;;;5042438;28;20202;-77
2023/08/21 04:34:07;;;;;;;4.35;0.82;;;22.30;61.00;24.00;102188.00;;;;5047295;28;20207;-77
2023/08/21 04:36:34;;;;;;;1.98;0.80;;;22.30;61.00;24.00;102192.00;;;;5047007;28;20192;-77
2023/08/21 04:39:01;;;;;;;2.03;0.80;;;22.30;61.00;24.00;102190.00;;;;5046707;28;20211;-77
2023/08/21 04:41:28;;;;;;;2.15;0.80;;;22.30;61.00;24.00;102183.00;;;;5046666;28;20398;-77
2023/08/21 04:43:55;;;;;;;1.08;0.90;;;22.30;61.00;24.00;102192.00;;;;5046030;28;20192;-77
2023/08/21 04:46:22;;;;;;;1.70;0.80;;;22.30;61.00;24.00;102188.00;;;;5047635;28;20199;-77
2023/08/21 04:48:51;;;;;;;3.08;1.35;;;22.30;61.00;23.90;102191.00;;;;5047021;28;20196;-77
2023/08/21 04:51:20;;;;;;;1.58;0.90;;;22.30;61.10;24.00;102191.00;;;;5046626;28;20212;-77
2023/08/21 04:53:46;;;;;;;2.20;1.00;;;22.30;61.00;24.00;102195.00;;;;5036060;28;20544;-77
2023/08/21 04:56:13;;;;;;;1.45;0.60;;;22.30;61.00;24.00;102199.00;;;;5046489;28;21933;-77
2023/08/21 04:58:40;;;;;;;3.50;0.90;;;22.30;61.10;24.00;102198.00;;;;5049416;28;20254;-77
2023/08/21 05:01:08;;;;;;;1.63;0.75;;;22.30;61.20;24.00;102195.00;;;;5049292;28;20249;-77
2023/08/21 05:03:35;;;;;;;1.95;0.70;;;22.30;61.20;24.00;102196.00;;;;5045948;28;20203;-77
2023/08/21 05:06:04;;;;;;;1.52;0.80;;;22.30;61.20;24.00;102193.00;;;;5049021;28;20649;-77
2023/08/21 05:08:31;;;;;;;1.20;0.75;;;22.30;61.30;24.00;102191.00;;;;5049476;28;20195;-77
2023/08/21 05:10:59;;;;;;;1.80;0.82;;;22.30;61.30;24.00;102199.00;;;;5049427;28;20605;-78
2023/08/21 05:13:26;;;;;;;2.85;0.73;;;22.30;61.30;24.00;102195.00;;;;5047783;28;20207;-78
2023/08/21 05:15:54;;;;;;;1.83;0.95;;;22.30;61.30;24.00;102191.00;;;;5047697;28;20196;-77
2023/08/21 05:18:22;;;;;;;1.05;0.60;;;22.30;61.30;24.00;102191.00;;;;5046099;28;20296;-78
2023/08/21 05:20:49;;;;;;;1.92;0.98;;;22.30;61.30;24.00;102190.00;;;;5051200;28;20200;-79
2023/08/21 05:23:18;;;;;;;1.42;0.70;;;22.30;61.20;24.00;102199.00;;;;5048906;28;20200;-77
2023/08/21 05:25:47;;;;;;;1.65;0.90;;;22.30;61.20;24.00;102192.00;;;;5049595;28;20203;-78
2023/08/21 05:28:14;;;;;;;1.67;0.77;;;22.30;61.20;24.00;102197.00;;;;5044923;28;20236;-78
2023/08/21 05:30:41;;;;;;;1.48;0.60;;;22.30;61.10;24.00;102202.00;;;;5047547;28;20298;-77
2023/08/21 05:33:08;;;;;;;2.97;0.80;;;22.30;61.20;24.00;102205.00;;;;5050474;28;20211;-78
2023/08/21 05:35:36;;;;;;;1.10;0.75;;;22.30;61.30;24.00;102209.00;;;;5049063;28;20204;-78
2023/08/21 05:38:04;;;;;;;2.13;0.88;;;22.30;61.30;24.00;102207.00;;;;5048179;28;20188;-80
2023/08/21 05:40:32;;;;;;;1.98;0.70;;;22.30;61.40;24.10;102207.00;;;;5043436;28;20195;-79
2023/08/21 05:42:59;;;;;;;1.95;1.17;;;22.30;61.60;24.10;102212.00;;;;5049775;28;20210;-79
2023/08/21 05:45:26;;;;;;;2.25;0.90;;;22.40;61.70;24.10;102208.00;;;;5046410;28;20573;-79
2023/08/21 05:47:53;;;;;;;1.08;0.80;;;22.40;61.80;24.20;102211.00;;;;5049392;28;20203;-79
2023/08/21 05:50:20;;;;;;;4.90;1.05;;;22.40;61.80;24.20;102206.00;;;;5049418;28;20207;-79
2023/08/21 05:52:47;;;;;;;2.08;0.80;;;22.40;61.90;24.30;102209.00;;;;5048585;28;20216;-79
2023/08/21 05:55:14;;;;;;;1.92;0.90;;;22.50;62.10;24.40;102205.00;;;;5046094;28;20203;-79
2023/08/21 05:57:42;;;;;;;3.58;0.88;;;22.60;62.20;24.40;102211.00;;;;5047844;28;20219;-79
2023/08/21 06:00:11;;;;;;;1.08;0.80;;;22.60;62.30;24.50;102208.00;;;;5046839;28;20228;-79
2023/08/21 06:02:38;;;;;;;1.20;0.77;;;22.70;62.20;24.60;102215.00;;;;5047942;28;20200;-79
2023/08/21 06:05:07;;;;;;;1.55;0.85;;;22.80;62.10;24.60;102211.00;;;;5049429;28;20192;-79
2023/08/21 06:07:34;;;;;;;2.58;0.80;;;22.80;62.00;24.70;102212.00;;;;5048915;28;20678;-79
2023/08/21 06:10:01;;;;;;;1.88;0.88;;;22.90;62.00;24.70;102215.00;;;;5049164;28;20196;-79
2023/08/21 06:12:28;;;;;;;2.67;0.77;;;22.90;61.90;24.80;102208.00;;;;5047803;28;20227;-79
2023/08/21 06:14:57;;;;;;;0.57;0.40;;;23.00;62.00;24.80;102205.00;;;;5047763;28;20212;-77
2023/08/21 06:17:24;;;;;;;3.25;0.93;;;23.00;62.00;24.90;102216.00;;;;5046045;28;20226;-77
2023/08/21 06:19:50;;;;;;;2.97;0.77;;;23.10;62.00;24.90;102210.00;;;;5048989;28;20841;-77
2023/08/21 06:22:18;;;;;;;1.33;0.88;;;23.20;62.00;25.00;102215.00;;;;5049675;28;20559;-77
2023/08/21 06:24:45;;;;;;;1.95;0.98;;;23.20;61.90;25.10;102217.00;;;;5047498;28;20217;-77
2023/08/21 06:27:12;;;;;;;2.45;0.80;;;23.30;62.00;25.10;102224.00;;;;5038600;28;20199;-77
2023/08/21 06:29:40;;;;;;;2.25;1.13;;;23.30;61.90;25.20;102227.00;;;;5039513;28;20202;-77
2023/08/21 06:32:08;;;;;;;2.30;1.05;;;23.40;61.80;25.20;102222.00;;;;5041464;28;20215;-77
2023/08/21 06:34:35;;;;;;;1.88;0.98;;;23.50;61.70;25.20;102231.00;;;;5039060;28;20188;-78
2023/08/21 06:37:02;;;;;;;3.33;0.88;;;23.50;61.60;25.30;102229.00;;;;5040305;28;20287;-78
2023/08/21 06:39:31;;;;;;;1.67;0.98;;;23.60;61.50;25.30;102230.00;;;;5045829;28;20657;-78
2023/08/21 06:42:00;;;;;;;4.55;0.98;;;23.60;61.40;25.30;102235.00;;;;5042995;28;20218;-78
2023/08/21 06:44:27;;;;;;;4.05;0.80;;;23.60;61.40;25.40;102234.00;;;;5035628;28;20667;-78
2023/08/21 06:46:54;;;;;;;2.10;0.70;;;23.70;61.50;25.50;102230.00;;;;5038842;28;20660;-78
2023/08/21 06:49:23;;;;;;;3.63;0.75;;;23.70;61.50;25.50;102224.00;;;;5029799;28;20196;-78
2023/08/21 06:51:50;;;;;;;3.10;0.95;;;23.80;61.70;25.60;102229.00;;;;5037163;28;20222;-77
2023/08/21 06:54:17;;;;;;;1.77;1.02;;;23.80;61.70;25.70;102227.00;;;;5039981;28;20217;-78
2023/08/21 06:56:44;;;;;;;1.67;1.00;;;23.90;61.70;25.80;102229.00;;;;5041029;28;20838;-77
2023/08/21 06:59:12;;;;;;;1.58;0.73;;;24.00;61.80;25.90;102226.00;;;;5040024;28;20226;-78
2023/08/21 07:01:39;;;;;;;2.90;1.17;;;24.10;61.80;26.00;102226.00;;;;5042748;28;20202;-77
2023/08/21 07:04:06;;;;;;;1.45;0.55;;;24.10;61.80;26.10;102229.00;;;;5038317;28;20203;-78
2023/08/21 07:06:34;;;;;;;2.55;0.77;;;24.20;61.60;26.20;102233.00;;;;5039053;28;20204;-79
2023/08/21 07:09:01;;;;;;;2.50;1.02;;;24.30;61.30;26.30;102226.00;;;;5041147;28;20204;-79
2023/08/21 07:11:28;;;;;;;2.28;0.65;;;24.40;61.20;26.40;102232.00;;;;5039003;28;20227;-77
2023/08/21 07:13:59;;;;;;;2.60;1.10;;;24.50;61.20;26.40;102226.00;;;;5039185;28;20199;-77
2023/08/21 07:16:27;;;;;;;2.92;0.70;;;24.60;61.20;26.50;102234.00;;;;5041291;28;20204;-78
2023/08/21 07:18:56;;;;;;;3.72;0.93;;;24.70;61.20;26.60;102241.00;;;;5040668;28;20246;-77
2023/08/21 07:21:23;;;;;;;3.25;0.88;;;24.80;60.90;26.70;102235.00;;;;5043370;28;20200;-78
2023/08/21 07:23:51;;;;;;;2.88;1.20;;;24.90;60.50;26.80;102239.00;;;;5045942;28;20211;-77
2023/08/21 07:26:18;;;;;;;4.28;0.90;;;25.00;60.30;26.90;102240.00;;;;5044776;28;20206;-78
2023/08/21 07:28:45;;;;;;;2.80;0.90;;;25.10;60.10;27.00;102237.00;;;;5043178;28;20195;-78
2023/08/21 07:31:12;;;;;;;1.10;0.68;;;25.20;59.90;27.10;102237.00;;;;5045783;28;20204;-79
2023/08/21 07:33:39;;;;;;;1.55;0.98;;;25.30;59.70;27.20;102245.00;;;;5047410;28;20204;-78
2023/08/21 07:36:07;;;;;;;4.57;1.20;;;25.30;59.50;27.30;102242.00;;;;5048234;28;20202;-79
2023/08/21 07:38:34;;;;;;;1.73;1.17;;;25.50;59.50;27.30;102246.00;;;;5034488;28;20226;-79
2023/08/21 07:41:07;;;;;;;2.13;0.90;;;25.50;59.20;27.30;102245.00;;;;5027215;28;20242;-78
2023/08/21 07:43:35;;;;;;;2.45;0.82;;;25.60;58.60;27.40;102254.00;;;;5034273;28;20679;-78
2023/08/21 07:46:04;;;;;;;2.88;0.88;;;25.70;58.60;27.40;102242.00;;;;5047124;28;20239;-79
2023/08/21 07:48:31;;;;;;;1.60;0.77;;;25.80;58.50;27.50;102246.00;;;;5047930;28;20249;-79
2023/08/21 07:50:58;;;;;;;5.30;0.93;;;25.80;58.50;27.50;102247.00;;;;5048577;28;20200;-79
2023/08/21 07:53:26;;;;;;;3.97;1.30;;;25.80;58.60;27.60;102251.00;;;;5048266;28;20215;-79
2023/08/21 07:55:54;;;;;;;2.10;0.90;;;25.90;58.70;27.70;102247.00;;;;5047120;28;20208;-79
2023/08/21 07:58:22;;;;;;;2.50;0.85;;;26.00;58.70;27.80;102249.00;;;;5045169;28;20237;-80
2023/08/21 08:00:49;;;;;;;1.70;0.93;;;26.00;58.80;27.90;102256.00;;;;5046656;28;20230;-79
2023/08/21 08:03:16;;;;;;;3.60;0.88;;;26.10;58.80;27.90;102254.00;;;;5048008;28;20558;-80
2023/08/21 08:05:43;;;;;;;2.30;0.90;;;26.20;58.70;28.00;102256.00;;;;5046242;28;20203;-80
2023/08/21 08:08:10;;;;;;;3.13;0.82;;;26.30;58.50;28.10;102247.00;;;;5047262;28;20200;-80
2023/08/21 08:10:39;;;;;;;2.20;0.90;;;26.40;58.30;28.20;102245.00;;;;5047696;28;20196;-81
2023/08/21 08:13:07;;;;;;;1.92;0.90;;;26.50;58.10;28.30;102245.00;;;;5046686;28;20608;-80
2023/08/21 08:15:36;;;;;;;2.08;1.10;;;26.50;57.90;28.40;102251.00;;;;5047915;28;20696;-80
2023/08/21 08:18:04;;;;;;;1.75;1.02;;;26.70;57.80;28.50;102257.00;;;;5046135;28;20196;-80
2023/08/21 08:20:31;;;;;;;3.08;1.10;;;26.70;57.40;28.50;102264.00;;;;5048738;28;20219;-80
2023/08/21 08:22:58;;;;;;;2.67;1.20;;;26.80;57.00;28.50;102265.00;;;;5047966;28;20200;-80
2023/08/21 08:25:25;;;;;;;3.25;1.08;;;26.90;56.80;28.60;102267.00;;;;5048276;28;20195;-80
2023/08/21 08:27:53;;;;;;;5.03;0.80;;;26.90;57.20;28.70;102261.00;;;;5047396;28;20204;-80
2023/08/21 08:30:20;;;;;;;3.60;0.98;;;27.00;56.70;28.70;102262.00;;;;5045958;28;20208;-80
2023/08/21 08:32:48;;;;;;;5.28;0.93;;;27.00;56.40;28.80;102254.00;;;;5042623;28;20207;-80
2023/08/21 08:35:16;;;;;;;3.38;0.90;;;27.10;56.80;28.90;102255.00;;;;5052476;28;20199;-80
2023/08/21 08:37:43;;;;;;;2.83;1.02;;;27.20;56.20;28.90;102262.00;;;;5051705;28;20191;-80
2023/08/21 08:40:12;;;;;;;3.30;0.77;;;27.20;56.00;28.90;102267.00;;;;5051060;28;20669;-78
2023/08/21 08:42:39;;;;;;;3.85;0.90;;;27.30;55.80;29.00;102268.00;;;;5050000;28;20203;-76
2023/08/21 08:45:08;;;;;;;1.00;0.60;;;27.30;55.50;29.00;102274.00;;;;5049800;28;20202;-76
2023/08/21 08:47:36;;;;;;;0.93;0.60;;;27.40;55.50;29.10;102275.00;;;;5052219;28;20203;-78
2023/08/21 08:50:08;;;;;;;1.67;0.93;;;27.40;55.60;29.20;102289.00;;;;5051962;28;20238;-77
2023/08/21 08:52:38;;;;;;;1.45;0.70;;;27.50;55.60;29.20;102284.00;;;;5051938;28;20238;-77
2023/08/21 08:55:07;;;;;;;2.00;0.80;;;27.60;55.40;29.30;102273.00;;;;5051424;28;20570;-77
2023/08/21 08:57:34;;;;;;;2.42;1.00;;;27.60;55.30;29.30;102280.00;;;;5052216;28;20204;-77
2023/08/21 09:00:03;;;;;;;3.35;1.08;;;27.70;55.20;29.40;102266.00;;;;5050791;28;20285;-78
2023/08/21 09:02:30;;;;;;;3.08;0.90;;;27.80;55.00;29.40;102271.00;;;;5037456;28;20563;-78
2023/08/21 09:04:56;;;;;;;2.38;1.02;;;27.80;55.00;29.50;102269.00;;;;5032193;28;20212;-77
2023/08/21 09:07:26;;;;;;;3.38;1.10;;;27.90;54.90;29.50;102265.00;;;;5051773;28;20239;-78
2023/08/21 09:09:54;;;;;;;1.63;0.60;;;27.90;54.50;29.60;102264.00;;;;5051529;28;20187;-77
2023/08/21 09:12:21;;;;;;;2.55;1.00;;;28.00;54.60;29.60;102259.00;;;;5051060;28;20240;-77
2023/08/21 09:14:48;;;;;;;7.22;1.00;;;28.10;54.50;29.70;102260.00;;;;5051039;28;20224;-78
2023/08/21 09:17:17;;;;;;;4.10;1.00;;;28.10;54.20;29.70;102260.00;;;;5049948;28;20191;-77
2023/08/21 09:19:44;;;;;;;3.22;0.95;;;28.20;54.10;29.80;102269.00;;;;5048862;28;20698;-78
2023/08/21 09:22:13;;;;;;;4.10;1.30;;;28.20;54.00;29.90;102276.00;;;;5032449;28;20203;-77
2023/08/21 09:25:06;;;;;;;6.80;1.63;;;28.30;53.80;29.80;102268.00;;;;5031343;28;20208;-77
2023/08/21 09:27:34;;;;;;;3.20;1.08;;;28.40;53.70;30.00;102263.00;;;;5031217;28;20204;-78
2023/08/21 09:30:03;;;;;;;4.15;1.30;;;28.40;53.50;30.00;102271.00;;;;5041637;28;20651;-78
2023/08/21 09:32:31;;;;;;;1.85;0.80;;;28.50;53.40;30.00;102263.00;;;;5031623;28;20196;-78
2023/08/21 09:34:58;;;;;;;4.40;1.00;;;28.50;53.30;30.10;102261.00;;;;5035664;28;20196;-78
2023/08/21 09:37:30;;;;;;;2.13;0.88;;;28.60;53.40;30.20;102263.00;;;;5047413;28;20199;-79
2023/08/21 09:40:05;;;;;;;3.33;0.80;;;28.70;53.20;30.20;102258.00;;;;5033554;28;20242;-79
2023/08/21 09:42:32;;;;;;;3.75;1.20;;;28.80;53.20;30.40;102266.00;;;;5031424;28;20203;-78
2023/08/21 09:45:01;;;;;;;2.08;1.50;;;28.90;53.10;30.40;102265.00;;;;5046627;28;20667;-75
2023/08/21 09:47:29;;;;;;;3.90;1.30;;;28.90;53.10;30.50;102258.00;;;;5041943;28;20191;-77
2023/08/21 09:49:56;;;;;;;2.72;1.45;;;29.00;52.70;30.60;102258.00;;;;5049255;28;20214;-78
2023/08/21 09:52:25;;;;;;;3.35;1.30;;;29.20;52.50;30.60;102251.00;;;;5043078;28;20586;-77
2023/08/21 09:54:59;;;;;;;3.08;1.08;;;29.20;52.40;30.70;102248.00;;;;5042204;28;20694;-76
2023/08/21 09:57:29;;;;;;;3.28;0.88;;;29.30;52.20;30.70;102249.00;;;;5047152;28;20207;-77
2023/08/21 09:59:57;;;;;;;1.88;1.05;;;29.30;52.00;30.80;102249.00;;;;5044936;28;20703;-77
2023/08/21 10:02:24;;;;;;;2.90;1.08;;;29.40;52.10;30.90;102256.00;;;;5049946;28;20199;-76
2023/08/21 10:04:53;;;;;;;2.60;1.00;;;29.40;52.10;31.00;102254.00;;;;5049318;28;20187;-76
2023/08/21 10:07:28;;;;;;;5.30;1.15;;;29.50;52.10;31.00;102248.00;;;;5047890;28;20261;-76
2023/08/21 10:09:57;;;;;;;4.68;1.33;;;29.60;52.70;31.10;102256.00;;;;5049468;28;20211;-76
2023/08/21 10:12:25;;;;;;;4.35;0.98;;;29.70;52.00;31.20;102242.00;;;;5039116;28;20242;-77
2023/08/21 10:14:53;;;;;;;1.15;0.73;;;29.80;51.80;31.30;102240.00;;;;5048070;28;20221;-76
2023/08/21 10:17:21;;;;;;;3.17;0.90;;;29.90;51.50;31.40;102234.00;;;;5048507;28;20211;-77
2023/08/21 10:19:53;;;;;;;2.60;1.08;;;29.90;51.30;31.40;102243.00;;;;5045262;28;20210;-77
2023/08/21 10:22:44;;;;;;;8.27;1.25;;;30.00;50.80;31.30;102238.00;;;;5048316;28;20208;-77
2023/08/21 10:25:22;;;;;;;1.73;0.90;;;30.10;49.60;31.40;102236.00;;;;5046936;28;20806;-76
2023/08/21 10:27:51;;;;;;;0.93;0.63;;;30.10;49.80;31.50;102236.00;;;;5041639;28;20199;-76
2023/08/21 10:30:24;;;;;;;1.98;0.90;;;30.20;50.30;31.50;102233.00;;;;5048445;28;20191;-76
2023/08/21 10:32:54;;;;;;;1.33;0.85;;;30.20;49.40;31.60;102244.00;;;;5048964;28;20306;-77
2023/08/21 10:35:24;;;;;;;1.20;0.70;;;30.30;50.00;31.60;102239.00;;;;5048203;28;20210;-77
2023/08/21 10:38:10;;;;;;;2.28;1.00;;;30.30;49.80;31.60;102244.00;;;;5037578;28;20285;-77
2023/08/21 10:40:38;;;;;;;2.13;0.90;;;30.40;48.90;31.80;102241.00;;;;5047891;28;20234;-77
2023/08/21 10:43:25;;;;;;;1.85;0.98;;;30.50;49.70;31.80;102246.00;;;;5046315;28;20191;-76
2023/08/21 10:45:57;;;;;;;1.27;1.17;;;30.50;49.40;31.80;102258.00;;;;5044779;28;20199;-77
2023/08/21 10:48:24;;;;;;;2.55;1.48;;;30.60;49.00;31.90;102258.00;;;;5048904;28;20205;-77
2023/08/21 10:50:51;;;;;;;1.48;0.90;;;30.60;49.30;31.90;102248.00;;;;5048098;28;20222;-77